Time;durP1;ratioP1;P1;durP2;ratioP2;P2;SDS_P1;SDS_P2;PMS_P1;PMS_P2;Temp;Humidity;BMP_temperature;BMP_pressure;BME280_temperature;BME280_humidity;BME280_pressure;Samples;Min_cycle;Max_cycle;Signal;HPM_P1;HPM_P2
2022/01/15 00:01:33;;;;;;;3.45;2.20;;;;;;;;;;5001765;28;20389;-84
2022/01/15 00:04:00;;;;;;;5.15;2.55;;;;;;;;;;4993585;28;20039;-91
2022/01/15 00:06:26;;;;;;;3.60;1.85;;;;;;;;;;4998791;28;20117;-86
2022/01/15 00:08:52;;;;;;;4.72;2.08;;;;;;;;;;5009788;28;20520;-81
2022/01/15 00:11:20;;;;;;;6.00;2.70;;;;;;;;;;5009471;28;20030;-83
2022/01/15 00:13:55;;;;;;;4.85;2.20;;;;;;;;;;5005158;28;20033;-89
2022/01/15 00:16:45;;;;;;;3.75;2.42;;;;;;;;;;5004872;28;20053;-89
2022/01/15 00:19:13;;;;;;;3.35;2.20;;;;;;;;;;4989138;28;20050;-90
2022/01/15 00:21:40;;;;;;;3.92;2.30;;;;;;;;;;4989269;28;20090;-87
2022/01/15 00:24:07;;;;;;;5.18;2.42;;;;;;;;;;4989052;28;20053;-83
2022/01/15 00:26:33;;;;;;;4.32;2.13;;;;;;;;;;5009295;28;20084;-88
2022/01/15 00:29:00;;;;;;;3.53;2.10;;;;;;;;;;5002624;28;20038;-75
2022/01/15 00:31:27;;;;;;;5.50;2.90;;;;;;;;;;5001290;28;20471;-89
2022/01/15 00:33:53;;;;;;;5.03;2.60;;;;;;;;;;4991064;28;20026;-73
2022/01/15 00:36:20;;;;;;;7.53;2.35;;;;;;;;;;4988536;28;20034;-73
2022/01/15 00:38:47;;;;;;;3.90;2.13;;;;;;;;;;4994436;28;20021;-74
2022/01/15 00:41:13;;;;;;;4.85;2.30;;;;;;;;;;4995759;28;20054;-74
2022/01/15 00:43:41;;;;;;;4.63;2.25;;;;;;;;;;5001193;28;20092;-74
2022/01/15 00:46:07;;;;;;;11.98;2.80;;;;;;;;;;4987299;28;20022;-74
2022/01/15 00:48:33;;;;;;;3.85;2.00;;;;;;;;;;4998934;28;20057;-77
2022/01/15 00:51:00;;;;;;;5.13;2.33;;;;;;;;;;5007513;28;20097;-74
2022/01/15 00:53:26;;;;;;;3.70;2.40;;;;;;;;;;4989040;28;20116;-74
2022/01/15 00:55:52;;;;;;;4.38;2.20;;;;;;;;;;4988604;28;20088;-74
2022/01/15 00:58:18;;;;;;;5.20;1.80;;;;;;;;;;4988623;28;20034;-73
2022/01/15 01:00:45;;;;;;;5.10;2.10;;;;;;;;;;4988607;28;20026;-74
2022/01/15 01:03:11;;;;;;;2.70;2.10;;;;;;;;;;4988362;28;20093;-74
2022/01/15 01:05:37;;;;;;;7.35;2.50;;;;;;;;;;4986634;28;20109;-74
2022/01/15 01:08:04;;;;;;;7.95;2.20;;;;;;;;;;4988299;28;20022;-75
2022/01/15 01:13:39;;;;;;;4.70;2.20;;;;;;;;;;4988733;28;20473;-74
2022/01/15 01:24:16;;;;;;;5.82;2.30;;;;;;;;;;5007621;28;20053;-74
2022/01/15 01:27:09;;;;;;;3.97;2.00;;;;;;;;;;5007351;28;20022;-74
2022/01/15 01:34:27;;;;;;;3.40;1.90;;;;;;;;;;4997441;28;20037;-79
2022/01/15 01:37:04;;;;;;;3.28;1.90;;;;;;;;;;5000954;28;20113;-75
2022/01/15 01:39:50;;;;;;;4.57;2.08;;;;;;;;;;4981611;28;20034;-74
2022/01/15 01:44:59;;;;;;;5.03;1.85;;;;;;;;;;4982892;28;20078;-74
2022/01/15 01:47:39;;;;;;;8.02;2.05;;;;;;;;;;4984017;28;20061;-74
2022/01/15 01:50:05;;;;;;;3.22;1.80;;;;;;;;;;4991847;28;20030;-74
2022/01/15 01:52:31;;;;;;;4.28;1.90;;;;;;;;;;5002776;28;20037;-74
2022/01/15 01:54:58;;;;;;;3.05;1.90;;;;;;;;;;5001849;28;20026;-74
2022/01/15 01:57:24;;;;;;;5.07;2.03;;;;;;;;;;5002465;28;20033;-75
2022/01/15 01:59:50;;;;;;;3.67;2.30;;;;;;;;;;5001979;28;20081;-76
2022/01/15 02:02:16;;;;;;;4.90;1.75;;;;;;;;;;5003019;28;20026;-74
2022/01/15 02:04:43;;;;;;;5.78;1.85;;;;;;;;;;5000829;28;20038;-73
2022/01/15 02:07:09;;;;;;;6.25;2.08;;;;;;;;;;5001905;28;20037;-74
2022/01/15 02:09:35;;;;;;;4.55;1.95;;;;;;;;;;5002710;28;20383;-75
2022/01/15 02:12:02;;;;;;;5.70;2.03;;;;;;;;;;4999686;28;20040;-74
2022/01/15 02:14:29;;;;;;;4.75;1.95;;;;;;;;;;4991146;28;20477;-74
2022/01/15 02:16:55;;;;;;;7.65;2.38;;;;;;;;;;4982732;28;20512;-79
2022/01/15 02:19:22;;;;;;;4.75;2.20;;;;;;;;;;4982418;28;20495;-74
2022/01/15 02:24:14;;;;;;;5.93;2.30;;;;;;;;;;4983748;28;20092;-76
2022/01/15 02:26:40;;;;;;;6.30;2.30;;;;;;;;;;4993801;28;20075;-74
2022/01/15 02:29:08;;;;;;;4.80;2.13;;;;;;;;;;5002650;28;20030;-74
2022/01/15 02:31:37;;;;;;;5.22;2.50;;;;;;;;;;5001920;28;20049;-74
2022/01/15 02:34:04;;;;;;;5.53;2.28;;;;;;;;;;5002015;28;20030;-73
2022/01/15 02:36:34;;;;;;;5.70;2.40;;;;;;;;;;5000899;28;20033;-76
2022/01/15 02:39:01;;;;;;;8.00;2.17;;;;;;;;;;5002407;28;20049;-74
2022/01/15 02:41:33;;;;;;;2.78;1.98;;;;;;;;;;5002569;28;20515;-73
2022/01/15 02:44:00;;;;;;;6.18;2.30;;;;;;;;;;5000766;28;20045;-74
2022/01/15 02:48:54;;;;;;;4.13;2.17;;;;;;;;;;5000565;28;20526;-75
2022/01/15 02:51:24;;;;;;;3.88;2.10;;;;;;;;;;5002639;28;20028;-77
2022/01/15 02:53:55;;;;;;;6.65;2.45;;;;;;;;;;5005746;28;20033;-74
2022/01/15 02:56:30;;;;;;;4.70;2.47;;;;;;;;;;5004170;28;20383;-76
2022/01/15 02:58:57;;;;;;;4.63;2.50;;;;;;;;;;5006055;28;20447;-77
2022/01/15 03:01:23;;;;;;;5.32;2.25;;;;;;;;;;5005832;28;20497;-74
2022/01/15 03:03:50;;;;;;;4.60;2.53;;;;;;;;;;5005299;28;20044;-75
2022/01/15 03:06:17;;;;;;;4.43;2.42;;;;;;;;;;4988280;28;20121;-78
2022/01/15 03:08:44;;;;;;;7.35;2.33;;;;;;;;;;4983731;28;20034;-74
2022/01/15 03:11:11;;;;;;;5.18;2.40;;;;;;;;;;4985871;28;20026;-74
2022/01/15 03:13:37;;;;;;;3.58;2.42;;;;;;;;;;4983929;28;20046;-74
2022/01/15 03:16:04;;;;;;;5.13;2.67;;;;;;;;;;4985817;28;20054;-73
2022/01/15 03:18:31;;;;;;;4.05;2.40;;;;;;;;;;4983930;28;20080;-74
2022/01/15 03:20:57;;;;;;;6.53;2.65;;;;;;;;;;4985767;28;20030;-74
2022/01/15 03:23:23;;;;;;;5.50;2.30;;;;;;;;;;4984627;28;20086;-80
2022/01/15 03:25:49;;;;;;;3.75;2.20;;;;;;;;;;4987614;28;20025;-74
2022/01/15 03:28:15;;;;;;;6.60;3.05;;;;;;;;;;5004955;28;20034;-73
2022/01/15 03:30:41;;;;;;;6.07;2.38;;;;;;;;;;5003254;28;20026;-75
2022/01/15 03:33:08;;;;;;;6.30;2.67;;;;;;;;;;5004199;28;20032;-73
2022/01/15 03:35:35;;;;;;;4.63;2.35;;;;;;;;;;5005109;28;20034;-74
2022/01/15 03:38:01;;;;;;;3.38;2.08;;;;;;;;;;5004829;28;20026;-80
2022/01/15 03:40:27;;;;;;;4.53;2.20;;;;;;;;;;5003516;28;20030;-73
2022/01/15 03:42:53;;;;;;;7.28;2.20;;;;;;;;;;5004327;28;20397;-79
2022/01/15 03:45:20;;;;;;;4.70;2.30;;;;;;;;;;5004830;28;20599;-77
2022/01/15 03:47:46;;;;;;;5.00;2.05;;;;;;;;;;5004184;28;20083;-74
2022/01/15 03:50:13;;;;;;;4.80;2.13;;;;;;;;;;5003160;28;20026;-74
2022/01/15 03:52:39;;;;;;;5.20;2.30;;;;;;;;;;5004776;28;20026;-73
2022/01/15 03:55:07;;;;;;;6.43;2.58;;;;;;;;;;4990595;28;20487;-73
2022/01/15 03:57:34;;;;;;;3.65;1.85;;;;;;;;;;4987515;28;20623;-73
2022/01/15 04:00:00;;;;;;;5.82;2.08;;;;;;;;;;4987412;28;20462;-74
2022/01/15 04:02:27;;;;;;;4.38;2.47;;;;;;;;;;4985779;28;20483;-73
2022/01/15 04:04:53;;;;;;;4.13;2.28;;;;;;;;;;5003559;28;20042;-73
2022/01/15 04:07:19;;;;;;;4.95;2.28;;;;;;;;;;5003837;28;20117;-73
2022/01/15 04:09:45;;;;;;;7.63;2.30;;;;;;;;;;5004487;28;20056;-73
2022/01/15 04:12:11;;;;;;;4.38;2.15;;;;;;;;;;5003463;28;20026;-73
2022/01/15 04:14:37;;;;;;;4.78;2.08;;;;;;;;;;5003652;28;20483;-74
2022/01/15 04:17:04;;;;;;;5.20;2.28;;;;;;;;;;5004109;28;20025;-73
2022/01/15 04:19:31;;;;;;;6.82;2.40;;;;;;;;;;5004165;28;20102;-73
2022/01/15 04:21:57;;;;;;;6.30;2.00;;;;;;;;;;5003842;28;20033;-73
2022/01/15 04:24:23;;;;;;;9.02;2.33;;;;;;;;;;4994805;28;20046;-73
2022/01/15 04:26:50;;;;;;;3.90;2.20;;;;;;;;;;4984094;28;20113;-73
2022/01/15 04:29:16;;;;;;;3.47;1.95;;;;;;;;;;4981320;28;20399;-73
2022/01/15 04:31:48;;;;;;;4.47;2.20;;;;;;;;;;4984197;28;20027;-74
2022/01/15 04:34:18;;;;;;;2.92;2.00;;;;;;;;;;4983986;28;20030;-74
2022/01/15 04:36:45;;;;;;;9.18;2.20;;;;;;;;;;4983914;28;20030;-73
2022/01/15 04:39:12;;;;;;;5.70;1.95;;;;;;;;;;4983968;28;20109;-73
2022/01/15 04:41:38;;;;;;;4.30;2.05;;;;;;;;;;4982350;28;20057;-73
2022/01/15 04:44:07;;;;;;;3.80;2.03;;;;;;;;;;4983412;28;20045;-73
2022/01/15 04:46:34;;;;;;;6.63;2.65;;;;;;;;;;4983081;28;20372;-75
2022/01/15 04:49:01;;;;;;;3.67;2.00;;;;;;;;;;4997440;28;20030;-73
2022/01/15 04:51:27;;;;;;;4.72;2.30;;;;;;;;;;4999644;28;20036;-73
2022/01/15 04:53:53;;;;;;;3.92;2.10;;;;;;;;;;4981642;28;20580;-76
2022/01/15 04:56:19;;;;;;;5.70;2.33;;;;;;;;;;4981490;28;20110;-77
2022/01/15 04:58:45;;;;;;;3.92;2.00;;;;;;;;;;4981628;28;20621;-73
2022/01/15 05:01:12;;;;;;;4.47;2.00;;;;;;;;;;4980110;28;20030;-76
2022/01/15 05:03:38;;;;;;;5.43;2.25;;;;;;;;;;4981389;28;20034;-76
2022/01/15 05:06:04;;;;;;;3.60;2.08;;;;;;;;;;4979245;28;20062;-77
2022/01/15 05:08:31;;;;;;;4.60;2.53;;;;;;;;;;4981199;28;20027;-76
2022/01/15 05:10:59;;;;;;;5.43;1.80;;;;;;;;;;4980926;28;20634;-73
2022/01/15 05:13:29;;;;;;;5.40;1.98;;;;;;;;;;4980850;28;20038;-73
2022/01/15 05:15:56;;;;;;;3.88;2.20;;;;;;;;;;4980114;28;20109;-77
2022/01/15 05:18:23;;;;;;;5.22;2.00;;;;;;;;;;4981182;28;20101;-73
2022/01/15 05:20:49;;;;;;;3.00;1.77;;;;;;;;;;4981273;28;20045;-73
2022/01/15 05:23:15;;;;;;;4.90;3.10;;;;;;;;;;4996795;28;20113;-74
2022/01/15 05:25:41;;;;;;;4.28;1.98;;;;;;;;;;4998719;28;20030;-77
2022/01/15 05:28:08;;;;;;;4.75;2.17;;;;;;;;;;5000423;28;20022;-74
2022/01/15 05:30:35;;;;;;;5.32;2.30;;;;;;;;;;5000283;28;20018;-76
2022/01/15 05:33:01;;;;;;;8.32;2.50;;;;;;;;;;5001007;28;20445;-73
2022/01/15 05:35:27;;;;;;;4.68;2.67;;;;;;;;;;5000681;28;20322;-73
2022/01/15 05:37:54;;;;;;;3.63;2.10;;;;;;;;;;4998449;28;20037;-75
2022/01/15 05:40:21;;;;;;;3.85;2.20;;;;;;;;;;5000796;28;20030;-73
2022/01/15 05:42:47;;;;;;;5.07;2.17;;;;;;;;;;4999119;28;20034;-73
2022/01/15 05:45:14;;;;;;;5.78;2.42;;;;;;;;;;5000555;28;20060;-75
2022/01/15 05:47:40;;;;;;;4.43;2.22;;;;;;;;;;4990819;28;20617;-73
2022/01/15 05:50:07;;;;;;;14.25;2.30;;;;;;;;;;4980763;28;20089;-74
2022/01/15 05:52:33;;;;;;;7.93;2.20;;;;;;;;;;4980936;28;20022;-73
2022/01/15 05:54:59;;;;;;;5.63;2.10;;;;;;;;;;4980573;28;20030;-74
2022/01/15 05:57:25;;;;;;;3.95;1.98;;;;;;;;;;4981798;28;20030;-75
2022/01/15 05:59:52;;;;;;;4.03;1.80;;;;;;;;;;4979861;28;20048;-74
2022/01/15 06:02:18;;;;;;;5.85;2.03;;;;;;;;;;4981158;28;20030;-84
2022/01/15 06:04:44;;;;;;;3.53;1.63;;;;;;;;;;4981886;28;20312;-74
2022/01/15 06:07:11;;;;;;;5.85;1.90;;;;;;;;;;4978555;28;20489;-76
2022/01/15 06:09:37;;;;;;;4.70;1.75;;;;;;;;;;4981457;28;20466;-74
2022/01/15 06:12:03;;;;;;;4.25;2.08;;;;;;;;;;4979887;28;20067;-73
2022/01/15 06:14:30;;;;;;;2.67;1.70;;;;;;;;;;4980711;28;20114;-77
2022/01/15 06:16:57;;;;;;;3.63;2.33;;;;;;;;;;4981281;28;20061;-79
2022/01/15 06:19:23;;;;;;;5.05;1.75;;;;;;;;;;4980151;28;20475;-78
2022/01/15 06:21:49;;;;;;;4.40;1.90;;;;;;;;;;4981115;28;20466;-78
2022/01/15 06:24:15;;;;;;;4.18;1.83;;;;;;;;;;4981650;28;20038;-75
2022/01/15 06:26:41;;;;;;;5.93;1.73;;;;;;;;;;4981592;28;20018;-76
2022/01/15 06:29:08;;;;;;;3.38;1.73;;;;;;;;;;4985303;28;20557;-78
2022/01/15 06:31:34;;;;;;;9.32;1.80;;;;;;;;;;4985211;28;20732;-74
2022/01/15 06:34:00;;;;;;;3.60;1.30;;;;;;;;;;4984538;28;20744;-81
2022/01/15 06:36:27;;;;;;;3.88;2.05;;;;;;;;;;4983539;28;20056;-75
2022/01/15 06:38:53;;;;;;;1.98;1.30;;;;;;;;;;4983494;28;20069;-83
2022/01/15 06:41:19;;;;;;;4.55;1.60;;;;;;;;;;4990724;28;20034;-73
2022/01/15 06:43:46;;;;;;;2.42;1.48;;;;;;;;;;5004021;28;20044;-78
2022/01/15 06:46:12;;;;;;;4.35;1.63;;;;;;;;;;5005588;28;20038;-73
2022/01/15 06:48:38;;;;;;;2.67;1.45;;;;;;;;;;5005684;28;20129;-73
2022/01/15 06:51:04;;;;;;;4.18;1.70;;;;;;;;;;5003950;28;20057;-74
2022/01/15 06:53:30;;;;;;;3.33;1.60;;;;;;;;;;5003713;28;20026;-74
2022/01/15 06:55:57;;;;;;;3.75;2.10;;;;;;;;;;4994680;28;20038;-73
2022/01/15 06:58:23;;;;;;;4.00;1.80;;;;;;;;;;4985927;28;20022;-74
2022/01/15 07:00:50;;;;;;;7.22;2.78;;;;;;;;;;4985849;28;20030;-74
2022/01/15 07:03:16;;;;;;;10.10;5.15;;;;;;;;;;4985367;28;20074;-74
2022/01/15 07:05:42;;;;;;;28.40;16.90;;;;;;;;;;4983794;28;20431;-74
2022/01/15 07:08:09;;;;;;;23.70;14.88;;;;;;;;;;4985318;28;20030;-73
2022/01/15 07:10:38;;;;;;;24.17;14.80;;;;;;;;;;5000849;28;20393;-74
2022/01/15 07:13:06;;;;;;;66.88;42.83;;;;;;;;;;5000104;28;20087;-74
2022/01/15 07:15:32;;;;;;;75.40;49.38;;;;;;;;;;5004645;28;20022;-74
2022/01/15 07:17:59;;;;;;;64.35;40.70;;;;;;;;;;4987725;28;20434;-75
2022/01/15 07:20:26;;;;;;;40.63;23.42;;;;;;;;;;4992445;28;20379;-73
2022/01/15 07:22:52;;;;;;;24.75;15.40;;;;;;;;;;4993284;28;20121;-72
2022/01/15 07:25:18;;;;;;;21.65;12.90;;;;;;;;;;4993431;28;20609;-71
2022/01/15 07:27:45;;;;;;;7.63;4.72;;;;;;;;;;4998357;28;20030;-73
2022/01/15 07:30:12;;;;;;;3.35;2.10;;;;;;;;;;5002897;28;20081;-74
2022/01/15 07:32:39;;;;;;;3.33;1.67;;;;;;;;;;5002984;28;20073;-72
2022/01/15 07:35:06;;;;;;;4.15;1.75;;;;;;;;;;5000900;28;20030;-73
2022/01/15 07:37:32;;;;;;;3.53;1.60;;;;;;;;;;4994892;28;20073;-73
2022/01/15 07:39:59;;;;;;;5.07;1.83;;;;;;;;;;4982399;28;20499;-72
2022/01/15 07:42:28;;;;;;;3.25;1.65;;;;;;;;;;4983442;28;20109;-73
2022/01/15 07:44:54;;;;;;;2.15;1.52;;;;;;;;;;4981476;28;20038;-80
2022/01/15 07:47:20;;;;;;;3.65;2.13;;;;;;;;;;4982726;28;20058;-74
2022/01/15 07:49:46;;;;;;;3.65;1.52;;;;;;;;;;4982884;28;20391;-73
2022/01/15 07:52:12;;;;;;;3.50;1.63;;;;;;;;;;4980579;28;20773;-74
2022/01/15 07:54:38;;;;;;;2.83;1.90;;;;;;;;;;4981344;28;20030;-72
2022/01/15 07:57:05;;;;;;;4.20;1.40;;;;;;;;;;4983000;28;20101;-73
2022/01/15 07:59:31;;;;;;;3.58;1.60;;;;;;;;;;4982880;28;20034;-73
2022/01/15 08:01:57;;;;;;;1.92;1.33;;;;;;;;;;4982257;28;20049;-72
2022/01/15 08:04:23;;;;;;;55.00;20.23;;;;;;;;;;4982113;28;20045;-74
2022/01/15 08:06:49;;;;;;;108.88;41.17;;;;;;;;;;4998226;28;20041;-74
2022/01/15 08:09:16;;;;;;;46.15;19.33;;;;;;;;;;5002096;28;20064;-78
2022/01/15 08:11:42;;;;;;;43.75;18.73;;;;;;;;;;5002073;28;20118;-73
2022/01/15 08:14:08;;;;;;;44.28;18.05;;;;;;;;;;5001586;28;20116;-73
2022/01/15 08:16:34;;;;;;;43.67;18.63;;;;;;;;;;5001632;28;20036;-73
2022/01/15 08:19:00;;;;;;;47.55;21.98;;;;;;;;;;4997101;28;20030;-73
2022/01/15 08:21:26;;;;;;;55.53;24.25;;;;;;;;;;4982213;28;20042;-74
2022/01/15 08:23:53;;;;;;;70.40;28.70;;;;;;;;;;4981852;28;20068;-78
2022/01/15 08:26:19;;;;;;;61.78;25.67;;;;;;;;;;4984364;28;20026;-73
2022/01/15 08:28:45;;;;;;;49.75;23.48;;;;;;;;;;5001449;28;20030;-73
2022/01/15 08:31:11;;;;;;;51.85;22.48;;;;;;;;;;4996589;28;20581;-73
2022/01/15 08:33:38;;;;;;;36.75;18.20;;;;;;;;;;4981878;28;20553;-73
2022/01/15 08:36:04;;;;;;;20.60;7.78;;;;;;;;;;4981737;28;20062;-78
2022/01/15 08:38:30;;;;;;;9.55;5.93;;;;;;;;;;4981781;28;20031;-75
2022/01/15 08:40:56;;;;;;;12.13;5.85;;;;;;;;;;4980646;28;20032;-77
2022/01/15 08:43:22;;;;;;;11.63;5.50;;;;;;;;;;4982095;28;20026;-73
2022/01/15 08:45:49;;;;;;;8.07;4.18;;;;;;;;;;4981525;28;20462;-73
2022/01/15 08:48:19;;;;;;;5.75;3.05;;;;;;;;;;4981575;28;20073;-72
2022/01/15 08:50:46;;;;;;;8.00;3.97;;;;;;;;;;4980946;28;20050;-76
2022/01/15 08:53:13;;;;;;;16.52;7.25;;;;;;;;;;4987283;28;20593;-76
2022/01/15 08:55:39;;;;;;;11.82;5.70;;;;;;;;;;5001403;28;20033;-73
2022/01/15 08:58:06;;;;;;;7.05;3.08;;;;;;;;;;5000934;28;20036;-78
2022/01/15 09:00:32;;;;;;;5.53;2.30;;;;;;;;;;5001141;28;20029;-73
2022/01/15 09:02:58;;;;;;;7.28;5.28;;;;;;;;;;4999185;28;20570;-72
2022/01/15 09:05:25;;;;;;;5.95;4.90;;;;;;;;;;4996718;28;20085;-74
2022/01/15 09:07:51;;;;;;;6.55;4.20;;;;;;;;;;4999229;28;20057;-74
2022/01/15 09:10:18;;;;;;;5.65;3.30;;;;;;;;;;5001040;28;20438;-74
2022/01/15 09:12:45;;;;;;;4.35;2.03;;;;;;;;;;4998673;28;20091;-73
2022/01/15 09:15:11;;;;;;;9.23;7.00;;;;;;;;;;4997385;28;20439;-73
2022/01/15 09:17:37;;;;;;;7.60;6.38;;;;;;;;;;4992906;28;20029;-76
2022/01/15 09:20:04;;;;;;;4.53;3.63;;;;;;;;;;4990758;28;20398;-75
2022/01/15 09:22:30;;;;;;;3.65;2.63;;;;;;;;;;4987643;28;20054;-74
2022/01/15 09:24:57;;;;;;;2.40;1.60;;;;;;;;;;4987579;28;20418;-77
2022/01/15 09:30:12;;;;;;;6.65;2.00;;;;;;;;;;4993438;28;20037;-74
2022/01/15 09:32:42;;;;;;;5.03;3.75;;;;;;;;;;4999578;28;20029;-72
2022/01/15 09:35:08;;;;;;;3.50;2.78;;;;;;;;;;4985472;28;20030;-73
2022/01/15 09:37:35;;;;;;;3.72;1.58;;;;;;;;;;4979796;28;20077;-76
2022/01/15 09:40:01;;;;;;;2.75;1.50;;;;;;;;;;4980739;28;20080;-73
2022/01/15 09:42:27;;;;;;;5.22;1.67;;;;;;;;;;4982548;28;20073;-76
2022/01/15 09:44:54;;;;;;;10.85;4.57;;;;;;;;;;4981185;28;20054;-72
2022/01/15 09:47:22;;;;;;;7.55;2.67;;;;;;;;;;4982959;28;20078;-73
2022/01/15 09:49:48;;;;;;;2.80;1.70;;;;;;;;;;4979709;28;20038;-77
2022/01/15 09:52:16;;;;;;;3.30;1.63;;;;;;;;;;4977956;28;20026;-72
2022/01/15 09:54:42;;;;;;;2.03;1.30;;;;;;;;;;4980402;28;20022;-76
2022/01/15 09:57:08;;;;;;;2.55;1.45;;;;;;;;;;4980597;28;20120;-77
2022/01/15 09:59:35;;;;;;;3.75;1.60;;;;;;;;;;4980465;28;20030;-77
2022/01/15 10:02:03;;;;;;;3.30;1.60;;;;;;;;;;4983370;28;20503;-73
2022/01/15 10:04:34;;;;;;;3.15;1.70;;;;;;;;;;4987475;28;20049;-75
2022/01/15 10:07:19;;;;;;;4.80;1.67;;;;;;;;;;4984729;28;20186;-74
2022/01/15 10:09:48;;;;;;;4.05;1.70;;;;;;;;;;4984044;28;20030;-74
2022/01/15 10:12:23;;;;;;;19.67;2.42;;;;;;;;;;4987971;28;20034;-73
2022/01/15 10:14:50;;;;;;;3.95;1.67;;;;;;;;;;4985849;28;20033;-74
2022/01/15 10:17:24;;;;;;;6.53;1.60;;;;;;;;;;4990039;28;20050;-74
2022/01/15 10:19:50;;;;;;;8.10;1.63;;;;;;;;;;4990638;28;20030;-73
2022/01/15 10:22:24;;;;;;;3.45;1.42;;;;;;;;;;4989987;28;20033;-75
2022/01/15 10:24:56;;;;;;;2.40;1.45;;;;;;;;;;4987073;28;20030;-74
2022/01/15 10:27:22;;;;;;;;;;;;;;;;;;4985708;28;20076;-74
2022/01/15 10:29:56;;;;;;;6.15;1.83;;;;;;;;;;4993692;28;20003;-73
2022/01/15 10:32:22;;;;;;;5.90;1.85;;;;;;;;;;5007430;28;20014;-72
2022/01/15 10:34:49;;;;;;;6.95;2.55;;;;;;;;;;4996328;28;20569;-71
2022/01/15 10:37:16;;;;;;;4.75;2.08;;;;;;;;;;5000584;28;20046;-77
2022/01/15 10:40:04;;;;;;;3.58;1.50;;;;;;;;;;5001397;28;20124;-75
2022/01/15 10:42:31;;;;;;;3.75;1.50;;;;;;;;;;4985202;28;20035;-76
2022/01/15 10:44:58;;;;;;;4.60;1.70;;;;;;;;;;4981305;28;20550;-73
2022/01/15 10:47:26;;;;;;;2.75;1.60;;;;;;;;;;4990747;28;20176;-77
2022/01/15 10:49:52;;;;;;;3.60;1.67;;;;;;;;;;4999481;28;20479;-73
2022/01/15 10:52:26;;;;;;;4.45;1.60;;;;;;;;;;5001218;28;20018;-75
2022/01/15 10:54:52;;;;;;;3.47;1.50;;;;;;;;;;5001261;28;20040;-78
2022/01/15 10:57:20;;;;;;;6.82;3.65;;;;;;;;;;5001012;28;20022;-77
2022/01/15 11:00:12;;;;;;;6.32;3.63;;;;;;;;;;4998265;28;20521;-73
2022/01/15 11:02:46;;;;;;;5.35;3.00;;;;;;;;;;4978983;28;20038;-72
2022/01/15 11:05:22;;;;;;;4.22;2.15;;;;;;;;;;4980981;28;20038;-72
2022/01/15 11:07:48;;;;;;;3.03;1.88;;;;;;;;;;4981490;28;20154;-72
2022/01/15 11:10:15;;;;;;;2.50;1.40;;;;;;;;;;4980068;28;20037;-73
2022/01/15 11:12:41;;;;;;;4.05;1.38;;;;;;;;;;4982403;28;20033;-72
2022/01/15 11:15:08;;;;;;;2.20;1.45;;;;;;;;;;4983065;28;20650;-73
2022/01/15 11:17:34;;;;;;;5.93;2.33;;;;;;;;;;4984523;28;20027;-73
2022/01/15 11:20:03;;;;;;;6.45;2.72;;;;;;;;;;4984924;28;20026;-72
2022/01/15 11:22:29;;;;;;;8.35;2.00;;;;;;;;;;5000459;28;20037;-73
2022/01/15 11:24:55;;;;;;;3.88;1.90;;;;;;;;;;5004651;28;20095;-72
2022/01/15 11:27:21;;;;;;;4.57;1.67;;;;;;;;;;5001462;28;20037;-76
2022/01/15 11:29:48;;;;;;;2.92;1.42;;;;;;;;;;4993497;28;20021;-71
2022/01/15 11:32:15;;;;;;;2.80;1.40;;;;;;;;;;4993782;28;20177;-71
2022/01/15 11:34:44;;;;;;;4.93;1.52;;;;;;;;;;4991190;28;20105;-73
2022/01/15 11:37:20;;;;;;;2.60;1.30;;;;;;;;;;4992964;28;20457;-71
2022/01/15 11:39:47;;;;;;;2.78;1.30;;;;;;;;;;4984570;28;20030;-71
2022/01/15 11:42:35;;;;;;;4.45;2.90;;;;;;;;;;5000689;28;20021;-72
2022/01/15 11:45:02;;;;;;;4.22;1.95;;;;;;;;;;5003657;28;20490;-72
2022/01/15 11:47:28;;;;;;;2.50;1.20;;;;;;;;;;4987491;28;20091;-72
2022/01/15 11:49:57;;;;;;;4.93;1.98;;;;;;;;;;4985303;28;20474;-72
2022/01/15 11:52:23;;;;;;;2.53;1.40;;;;;;;;;;4982971;28;20045;-72
2022/01/15 11:54:49;;;;;;;1.83;1.30;;;;;;;;;;4984412;28;20508;-73
2022/01/15 11:57:22;;;;;;;2.35;1.20;;;;;;;;;;4983235;28;20056;-73
2022/01/15 11:59:49;;;;;;;2.20;1.30;;;;;;;;;;4992081;28;20022;-72
2022/01/15 12:02:27;;;;;;;3.85;1.73;;;;;;;;;;5002422;28;20639;-71
2022/01/15 12:04:54;;;;;;;2.38;1.50;;;;;;;;;;4999820;28;21018;-72
2022/01/15 12:07:21;;;;;;;3.53;1.70;;;;;;;;;;5003095;28;20387;-73
2022/01/15 12:09:51;;;;;;;2.47;1.83;;;;;;;;;;5003945;28;20084;-72
2022/01/15 12:12:21;;;;;;;2.15;1.23;;;;;;;;;;5004029;28;20417;-71
2022/01/15 12:14:50;;;;;;;2.13;1.55;;;;;;;;;;5001617;28;20052;-72
2022/01/15 12:17:24;;;;;;;3.63;1.90;;;;;;;;;;4998552;28;20034;-72
2022/01/15 12:19:51;;;;;;;2.92;1.58;;;;;;;;;;5001332;28;20025;-73
2022/01/15 12:22:36;;;;;;;2.75;1.42;;;;;;;;;;5000877;28;20034;-75
2022/01/15 12:25:04;;;;;;;3.28;1.42;;;;;;;;;;4999071;28;20044;-74
2022/01/15 12:27:31;;;;;;;2.53;1.08;;;;;;;;;;5000556;28;20076;-72
2022/01/15 12:30:15;;;;;;;5.60;1.70;;;;;;;;;;4981913;28;20026;-73
2022/01/15 12:32:42;;;;;;;3.10;1.27;;;;;;;;;;4981450;28;20022;-72
2022/01/15 12:35:14;;;;;;;1.67;1.27;;;;;;;;;;4980188;28;20037;-72
2022/01/15 12:37:53;;;;;;;4.28;1.50;;;;;;;;;;4981327;28;20660;-72
2022/01/15 12:40:21;;;;;;;2.83;1.30;;;;;;;;;;4980537;28;20034;-73
2022/01/15 12:42:55;;;;;;;3.47;1.55;;;;;;;;;;4983645;28;20022;-72
2022/01/15 12:45:21;;;;;;;4.13;1.27;;;;;;;;;;4999527;28;20064;-73
2022/01/15 12:47:47;;;;;;;3.22;1.23;;;;;;;;;;5000580;28;20064;-75
2022/01/15 12:50:14;;;;;;;4.15;1.30;;;;;;;;;;5000298;28;20033;-73
2022/01/15 12:52:40;;;;;;;3.25;1.30;;;;;;;;;;4998849;28;20211;-74
2022/01/15 12:55:07;;;;;;;3.00;1.20;;;;;;;;;;5000615;28;20534;-73
2022/01/15 12:57:37;;;;;;;4.10;1.33;;;;;;;;;;4999534;28;20124;-73
2022/01/15 13:00:07;;;;;;;2.17;1.17;;;;;;;;;;5001087;28;20045;-74
2022/01/15 13:02:33;;;;;;;6.43;1.30;;;;;;;;;;4999371;28;20106;-73
2022/01/15 13:04:59;;;;;;;4.47;1.63;;;;;;;;;;4993181;28;20088;-73
2022/01/15 13:07:26;;;;;;;3.75;1.60;;;;;;;;;;4980498;28;20026;-72
2022/01/15 13:09:52;;;;;;;4.13;1.60;;;;;;;;;;4986288;28;20037;-73
2022/01/15 13:12:18;;;;;;;3.33;1.40;;;;;;;;;;4990727;28;20041;-73
2022/01/15 13:14:45;;;;;;;3.83;1.40;;;;;;;;;;4983805;28;20050;-74
2022/01/15 13:17:27;;;;;;;4.15;1.60;;;;;;;;;;4979148;28;20034;-73
2022/01/15 13:19:53;;;;;;;5.68;1.63;;;;;;;;;;4985422;28;20034;-72
2022/01/15 13:22:23;;;;;;;6.15;1.80;;;;;;;;;;4989172;28;20057;-73
2022/01/15 13:24:57;;;;;;;9.75;1.75;;;;;;;;;;4988388;28;20042;-72
2022/01/15 13:27:23;;;;;;;3.47;1.67;;;;;;;;;;4980682;28;20053;-73
2022/01/15 13:29:50;;;;;;;5.22;2.13;;;;;;;;;;4982862;28;20053;-72
2022/01/15 13:32:16;;;;;;;4.85;1.70;;;;;;;;;;4998462;28;20026;-72
2022/01/15 13:34:48;;;;;;;4.60;1.75;;;;;;;;;;5000050;28;20092;-73
2022/01/15 13:37:18;;;;;;;;;;;;;;;;;;4997711;28;20034;-72
2022/01/15 13:39:44;;;;;;;4.05;2.05;;;;;;;;;;4999675;28;19909;-73
2022/01/15 13:42:17;;;;;;;5.97;2.38;;;;;;;;;;4985796;28;20121;-73
2022/01/15 13:44:43;;;;;;;;;;;;;;;;;;4997631;28;20046;-73
2022/01/15 13:47:11;;;;;;;5.25;2.80;;;;;;;;;;4999502;28;19913;-73
2022/01/15 13:55:12;;;;;;;3.38;2.05;;;;;;;;;;4999764;28;20045;-73
2022/01/15 13:57:40;;;;;;;5.10;2.42;;;;;;;;;;4999970;28;20457;-73
2022/01/15 14:00:14;;;;;;;7.25;2.15;;;;;;;;;;4998004;28;20038;-73
2022/01/15 14:02:41;;;;;;;7.70;4.35;;;;;;;;;;4999730;28;20026;-73
2022/01/15 14:05:16;;;;;;;10.85;4.93;;;;;;;;;;4991746;28;20035;-72
2022/01/15 14:07:44;;;;;;;8.85;4.05;;;;;;;;;;4979678;28;20049;-73
2022/01/15 14:10:12;;;;;;;10.98;4.45;;;;;;;;;;4980257;28;20478;-73
2022/01/15 14:12:38;;;;;;;6.07;3.40;;;;;;;;;;4981469;28;20540;-73
2022/01/15 14:15:10;;;;;;;7.35;2.92;;;;;;;;;;4999058;28;20037;-73
2022/01/15 14:17:42;;;;;;;5.78;2.50;;;;;;;;;;4998505;28;20080;-74
2022/01/15 14:22:43;;;;;;;8.30;2.40;;;;;;;;;;4999229;28;20037;-73
2022/01/15 14:25:17;;;;;;;7.25;2.65;;;;;;;;;;4992035;28;20034;-73
2022/01/15 14:27:44;;;;;;;5.97;2.20;;;;;;;;;;4983214;28;20042;-75
2022/01/15 14:30:10;;;;;;;7.57;3.30;;;;;;;;;;4986111;28;20411;-73
2022/01/15 14:32:37;;;;;;;8.10;4.28;;;;;;;;;;4979446;28;20117;-74
2022/01/15 14:35:03;;;;;;;4.90;3.22;;;;;;;;;;4981123;28;20034;-74
2022/01/15 14:37:29;;;;;;;7.45;3.75;;;;;;;;;;4997727;28;20033;-73
2022/01/15 14:39:56;;;;;;;6.03;2.75;;;;;;;;;;4988478;28;20030;-74
2022/01/15 14:42:23;;;;;;;5.20;2.40;;;;;;;;;;4987612;28;20030;-74
2022/01/15 14:44:53;;;;;;;5.10;1.98;;;;;;;;;;4995975;28;20249;-75
2022/01/15 14:47:19;;;;;;;8.32;2.28;;;;;;;;;;4998527;28;20076;-74
2022/01/15 14:49:46;;;;;;;5.38;2.10;;;;;;;;;;4995482;28;20034;-74
2022/01/15 14:52:12;;;;;;;6.70;1.92;;;;;;;;;;4998087;28;20620;-74
2022/01/15 14:54:38;;;;;;;7.15;4.13;;;;;;;;;;4995550;28;20189;-74
2022/01/15 14:57:04;;;;;;;6.10;3.42;;;;;;;;;;4982599;28;20022;-73
2022/01/15 14:59:31;;;;;;;6.82;3.63;;;;;;;;;;4982511;28;20073;-74
2022/01/15 15:01:57;;;;;;;6.63;3.00;;;;;;;;;;4987625;28;20109;-73
2022/01/15 15:04:23;;;;;;;7.20;2.80;;;;;;;;;;4996453;28;20398;-73
2022/01/15 15:06:49;;;;;;;3.45;2.30;;;;;;;;;;4997450;28;20043;-74
2022/01/15 15:09:15;;;;;;;4.88;1.73;;;;;;;;;;4982967;28;20109;-73
2022/01/15 15:11:42;;;;;;;5.43;1.50;;;;;;;;;;4984488;28;20560;-74
2022/01/15 15:14:08;;;;;;;6.65;1.70;;;;;;;;;;4989810;28;20046;-74
2022/01/15 15:16:34;;;;;;;3.97;2.13;;;;;;;;;;4999106;28;20355;-73
2022/01/15 15:19:00;;;;;;;4.63;1.65;;;;;;;;;;5000036;28;20096;-73